createdAt,value
2022-12-04T00:03:49.274Z,45
2022-12-04T00:09:07.824Z,90
2022-12-04T00:19:46.084Z,90
2022-12-04T00:25:06.149Z,90
2022-12-04T00:30:25.542Z,90
2022-12-04T00:35:44.364Z,45
2022-12-04T00:46:23.264Z,45
2022-12-04T00:51:43.080Z,45
2022-12-04T01:02:20.449Z,90
2022-12-04T01:07:40.312Z,45
2022-12-04T01:13:00.526Z,45
2022-12-04T01:18:19.485Z,45
2022-12-04T01:28:57.185Z,45
2022-12-04T01:34:16.470Z,90
2022-12-04T01:44:54.798Z,45
2022-12-04T01:50:14.057Z,45
2022-12-04T01:55:33.444Z,45
2022-12-04T02:00:55.787Z,90
2022-12-04T02:11:30.355Z,90
2022-12-04T02:16:49.401Z,90
2022-12-04T02:27:27.982Z,90
2022-12-04T02:32:46.970Z,45
2022-12-04T02:38:05.900Z,90
2022-12-04T02:43:24.874Z,90
2022-12-04T02:54:03.251Z,45
2022-12-04T02:59:22.292Z,90
2022-12-04T03:10:00.544Z,90
2022-12-04T03:15:19.829Z,45
2022-12-04T03:20:38.972Z,45
2022-12-04T03:25:58.539Z,45
2022-12-04T03:36:37.677Z,45
2022-12-04T03:41:55.724Z,45
2022-12-04T03:52:33.834Z,45
2022-12-04T03:57:52.697Z,45
2022-12-04T04:03:11.741Z,45
2022-12-04T04:08:31.346Z,45
2022-12-04T04:19:09.808Z,90
2022-12-04T04:24:28.600Z,45
2022-12-04T04:35:31.893Z,90
2022-12-04T04:46:10.166Z,90
2022-12-04T04:51:29.511Z,90
2022-12-04T05:02:08.596Z,90
2022-12-04T05:07:28.606Z,45
2022-12-04T05:12:46.946Z,45
2022-12-04T05:18:06.866Z,45
2022-12-04T05:28:45.956Z,45
2022-12-04T05:34:04.890Z,45
2022-12-04T05:39:24.040Z,90
2022-12-04T05:44:43.841Z,90
2022-12-04T05:50:02.636Z,90
2022-12-04T05:55:21.759Z,45
2022-12-04T06:00:40.744Z,45
2022-12-04T06:05:59.795Z,45
2022-12-04T06:11:18.982Z,45
2022-12-04T06:16:37.668Z,45
2022-12-04T06:27:28.418Z,90
2022-12-04T06:32:35.577Z,45
2022-12-04T06:37:54.677Z,45
2022-12-04T06:43:14.119Z,45
2022-12-04T06:53:52.704Z,90
2022-12-04T06:59:11.685Z,45
2022-12-04T07:09:50.921Z,45
2022-12-04T07:15:10.119Z,45
2022-12-04T07:20:28.945Z,0
2022-12-04T07:25:48.645Z,90
2022-12-04T07:36:27.489Z,90
2022-12-04T07:41:46.674Z,90
2022-12-04T07:52:24.643Z,90
2022-12-04T07:57:43.685Z,45
2022-12-04T08:03:03.045Z,0
2022-12-04T08:08:22.088Z,90
2022-12-04T08:13:41.537Z,0
2022-12-04T08:19:00.676Z,45
2022-12-04T08:24:20.279Z,45
2022-12-04T08:34:58.791Z,90
2022-12-04T08:40:18.505Z,45
2022-12-04T08:45:38.028Z,90
2022-12-04T08:50:58.493Z,90
2022-12-04T08:56:18.195Z,90
2022-12-04T09:01:36.541Z,0
2022-12-04T09:06:55.315Z,0
2022-12-04T09:12:23.885Z,135
2022-12-04T09:17:34.209Z,90
2022-12-04T09:23:03.718Z,315
2022-12-04T09:33:31.890Z,315
2022-12-04T09:38:50.736Z,0
2022-12-04T09:44:10.241Z,90
2022-12-04T09:49:29.908Z,45
2022-12-04T10:00:09.010Z,135
2022-12-04T10:05:28.573Z,135
2022-12-04T10:16:07.649Z,0
2022-12-04T10:21:26.781Z,45
2022-12-04T10:26:45.851Z,45
2022-12-04T10:32:05.953Z,90
2022-12-04T10:42:43.549Z,90
2022-12-04T10:48:02.573Z,45
2022-12-04T10:58:41.878Z,45
2022-12-04T11:04:00.286Z,90
2022-12-04T11:09:19.042Z,45
2022-12-04T11:14:41.734Z,90
2022-12-04T11:19:59.158Z,90
2022-12-04T11:25:18.929Z,45
2022-12-04T11:30:38.472Z,45
2022-12-04T11:35:56.673Z,90
2022-12-04T11:41:15.474Z,135
2022-12-04T11:51:54.879Z,135
2022-12-04T11:57:13.809Z,90
2022-12-04T12:02:33.103Z,90
2022-12-04T12:07:53.645Z,270
2022-12-04T12:18:31.310Z,45
2022-12-04T12:23:50.961Z,0
2022-12-04T12:34:29.191Z,45
2022-12-04T12:39:48.733Z,45
2022-12-04T12:45:08.225Z,45
2022-12-04T12:50:27.861Z,0
2022-12-04T13:01:07.264Z,0
2022-12-04T13:06:26.193Z,0
2022-12-04T13:17:04.693Z,315
2022-12-04T13:22:24.115Z,315
2022-12-04T13:27:42.983Z,270
2022-12-04T13:33:02.213Z,315
2022-12-04T13:43:41.232Z,135
2022-12-04T13:49:00.159Z,180
2022-12-04T13:59:38.166Z,270
2022-12-04T14:04:57.889Z,0
2022-12-04T14:10:16.650Z,315
2022-12-04T14:15:36.621Z,0
2022-12-04T14:20:56.254Z,315
2022-12-04T14:26:15.391Z,225
2022-12-04T14:31:34.774Z,315
2022-12-04T14:42:12.710Z,270
2022-12-04T14:47:32.322Z,315
2022-12-04T14:52:51.443Z,270
2022-12-04T14:58:11.009Z,270
2022-12-04T15:03:29.997Z,315
2022-12-04T15:08:49.326Z,270
2022-12-04T15:14:08.872Z,270
2022-12-04T15:24:47.138Z,270
2022-12-04T15:30:06.418Z,270
2022-12-04T15:40:45.698Z,270
2022-12-04T15:46:05.423Z,315
2022-12-04T15:51:24.155Z,270
2022-12-04T15:56:43.316Z,270
2022-12-04T16:02:02.827Z,270
2022-12-04T16:07:22.446Z,315
2022-12-04T16:12:41.788Z,225
2022-12-04T16:23:20.971Z,315
2022-12-04T16:28:40.557Z,315
2022-12-04T16:33:59.915Z,270
2022-12-04T16:39:19.034Z,270
2022-12-04T16:49:57.172Z,270
2022-12-04T16:55:16.120Z,270
2022-12-04T17:05:54.756Z,270
2022-12-04T17:11:14.286Z,315
2022-12-04T17:16:33.993Z,225
2022-12-04T17:21:52.919Z,90
2022-12-04T17:27:12.267Z,90
2022-12-04T17:32:31.958Z,45
2022-12-04T17:37:51.284Z,0
2022-12-04T17:43:10.655Z,225
2022-12-04T17:48:30.959Z,270
2022-12-04T17:53:50.572Z,270
2022-12-04T17:59:09.654Z,270
2022-12-04T18:04:29.119Z,225
2022-12-04T18:09:47.718Z,270
2022-12-04T18:15:06.947Z,225
2022-12-04T18:25:46.202Z,180
2022-12-04T18:31:05.633Z,315
2022-12-04T18:41:44.819Z,225
2022-12-04T18:47:03.957Z,270
2022-12-04T18:52:23.238Z,225
2022-12-04T18:57:42.772Z,270
2022-12-04T19:08:21.195Z,225
2022-12-04T19:13:40.744Z,225
2022-12-04T19:24:20.039Z,225
2022-12-04T19:29:39.128Z,270
2022-12-04T19:34:58.734Z,225
2022-12-04T19:40:17.588Z,270
2022-12-04T19:45:37.400Z,270
2022-12-04T19:50:56.228Z,270
2022-12-04T19:56:15.055Z,270
2022-12-04T20:01:34.675Z,315
2022-12-04T20:06:53.590Z,270
2022-12-04T20:13:27.766Z,225
2022-12-04T20:17:33.385Z,225
2022-12-04T20:22:51.176Z,225
2022-12-04T20:28:14.296Z,225
2022-12-04T20:33:29.444Z,270
2022-12-04T20:38:49.045Z,270
2022-12-04T20:44:08.431Z,225
2022-12-04T20:49:27.779Z,270
2022-12-04T20:54:47.201Z,225
2022-12-04T21:00:05.678Z,270
2022-12-04T21:05:25.188Z,225
2022-12-04T21:10:44.725Z,270
2022-12-04T21:16:04.515Z,225
2022-12-04T21:21:24.181Z,225
2022-12-04T21:26:43.060Z,270
2022-12-04T21:32:01.813Z,270
2022-12-04T21:37:20.967Z,270
2022-12-04T21:42:40.576Z,225
2022-12-04T21:47:59.912Z,225
2022-12-04T21:53:19.395Z,225
2022-12-04T21:58:38.801Z,225
2022-12-04T22:03:57.920Z,225
2022-12-04T22:09:17.602Z,225
2022-12-04T22:14:36.781Z,225
2022-12-04T22:19:55.738Z,225
2022-12-04T22:20:20.633Z,225
2022-12-04T22:25:39.945Z,270
2022-12-04T22:30:58.954Z,225
2022-12-04T22:36:19.090Z,270
2022-12-04T22:41:38.515Z,270
2022-12-04T22:46:58.302Z,270
2022-12-04T22:52:17.685Z,270
2022-12-04T22:57:36.993Z,225
2022-12-04T23:02:55.930Z,225
2022-12-04T23:08:15.009Z,270
2022-12-04T23:13:34.435Z,270
2022-12-04T23:18:54.137Z,270
2022-12-04T23:24:13.858Z,270
2022-12-04T23:29:51.825Z,270
2022-12-04T23:34:52.685Z,270
2022-12-04T23:40:11.949Z,270
2022-12-04T23:45:31.631Z,270
2022-12-04T23:50:51.026Z,270
2022-12-04T23:56:10.793Z,270
